createdAt,value
2018-03-22T00:02:29.174Z,63.70
2018-03-22T00:04:59.693Z,63.70
2018-03-22T00:07:28.309Z,63.40
2018-03-22T00:09:55.899Z,63.70
2018-03-22T00:12:23.425Z,64.00
2018-03-22T00:14:50.972Z,63.90
2018-03-22T00:17:18.495Z,63.50
2018-03-22T00:19:47.150Z,64.50
2018-03-22T00:22:26.862Z,64.50
2018-03-22T00:24:54.416Z,64.90
2018-03-22T00:27:21.946Z,66.50
2018-03-22T00:29:51.105Z,68.80
2018-03-22T00:32:19.398Z,69.80
2018-03-22T00:34:46.954Z,69.70
2018-03-22T00:37:14.495Z,70.20
2018-03-22T00:39:42.144Z,70.40
2018-03-22T00:42:09.684Z,70.30
2018-03-22T00:44:37.286Z,70.40
2018-03-22T00:49:48.599Z,70.70
2018-03-22T00:52:16.185Z,70.60
2018-03-22T00:54:44.506Z,70.30
2018-03-22T00:57:12.057Z,70.20
2018-03-22T00:59:39.599Z,70.00
2018-03-22T01:02:07.169Z,69.60
2018-03-22T01:04:34.752Z,69.50
2018-03-22T01:07:02.287Z,69.60
2018-03-22T01:09:29.939Z,69.50
2018-03-22T01:11:57.510Z,70.70
2018-03-22T01:14:25.066Z,71.40
2018-03-22T01:16:52.625Z,71.90
2018-03-22T01:19:20.186Z,72.50
2018-03-22T01:21:47.724Z,73.20
2018-03-22T01:24:16.066Z,75.60
2018-03-22T01:26:43.637Z,75.50
2018-03-22T01:29:11.220Z,76.00
2018-03-22T01:31:39.515Z,76.80
2018-03-22T01:34:07.071Z,76.80
2018-03-22T01:36:34.601Z,76.90
2018-03-22T01:39:02.157Z,77.10
2018-03-22T01:41:29.691Z,77.10
2018-03-22T01:43:57.265Z,77.10
2018-03-22T01:46:24.787Z,77.40
2018-03-22T01:48:52.321Z,78.20
2018-03-22T01:51:20.650Z,80.30
2018-03-22T01:53:48.196Z,80.10
2018-03-22T01:56:15.766Z,80.60
2018-03-22T01:58:43.316Z,81.00
2018-03-22T02:01:11.062Z,81.40
2018-03-22T02:03:38.599Z,81.40
2018-03-22T02:06:06.938Z,81.30
2018-03-22T02:08:34.486Z,81.30
2018-03-22T02:11:02.051Z,81.30
2018-03-22T02:13:29.706Z,81.60
2018-03-22T02:15:57.267Z,82.00
2018-03-22T02:18:24.808Z,82.10
2018-03-22T02:20:52.368Z,82.10
2018-03-22T02:23:19.907Z,82.00
2018-03-22T02:25:48.200Z,82.00
2018-03-22T02:28:15.747Z,81.90
2018-03-22T02:30:43.273Z,81.90
2018-03-22T02:33:10.839Z,81.40
2018-03-22T02:35:38.373Z,81.10
2018-03-22T02:38:05.935Z,80.90
2018-03-22T02:40:33.481Z,80.70
2018-03-22T02:43:01.038Z,80.80
2018-03-22T02:45:28.566Z,80.80
2018-03-22T02:47:56.898Z,80.50
2018-03-22T02:50:24.466Z,80.50
2018-03-22T02:52:52.048Z,80.40
2018-03-22T02:55:20.375Z,80.00
2018-03-22T02:57:47.973Z,79.90
2018-03-22T03:00:15.515Z,79.60
2018-03-22T03:02:43.085Z,79.30
2018-03-22T03:05:10.630Z,79.00
2018-03-22T03:07:38.217Z,78.90
2018-03-22T03:10:05.759Z,78.90
2018-03-22T03:12:33.344Z,78.40
2018-03-22T03:15:00.893Z,78.10
2018-03-22T03:17:28.450Z,77.80
2018-03-22T03:19:56.009Z,77.60
2018-03-22T03:22:23.579Z,77.60
2018-03-22T03:24:51.165Z,77.20
2018-03-22T03:27:19.471Z,77.20
2018-03-22T03:29:47.037Z,77.10
2018-03-22T03:32:14.595Z,76.90
2018-03-22T03:34:42.153Z,77.40
2018-03-22T03:37:09.702Z,76.40
2018-03-22T03:39:37.286Z,76.10
2018-03-22T03:42:04.827Z,76.10
2018-03-22T03:44:32.429Z,76.90
2018-03-22T03:46:59.954Z,76.00
2018-03-22T03:49:27.544Z,75.60
2018-03-22T03:51:55.082Z,75.50
2018-03-22T03:54:22.642Z,75.20
2018-03-22T03:56:50.215Z,74.90
2018-03-22T03:59:17.760Z,75.10
2018-03-22T04:01:45.332Z,74.60
2018-03-22T04:04:12.870Z,74.60
2018-03-22T04:06:40.438Z,74.50
2018-03-22T04:09:07.968Z,74.20
2018-03-22T04:11:35.573Z,74.20
2018-03-22T04:14:03.109Z,73.90
2018-03-22T04:16:30.688Z,73.90
2018-03-22T04:18:58.241Z,73.70
2018-03-22T04:21:25.822Z,73.40
2018-03-22T04:23:53.359Z,73.30
2018-03-22T04:26:20.896Z,73.50
2018-03-22T04:28:49.218Z,73.30
2018-03-22T04:31:16.772Z,73.20
2018-03-22T04:33:44.347Z,73.10
2018-03-22T04:36:11.878Z,73.20
2018-03-22T04:38:39.442Z,73.00
2018-03-22T04:41:06.980Z,73.00
2018-03-22T04:43:34.795Z,73.00
2018-03-22T04:46:02.366Z,73.00
2018-03-22T04:48:29.955Z,73.00
2018-03-22T04:50:58.268Z,72.90
2018-03-22T04:53:25.840Z,72.70
2018-03-22T04:55:53.379Z,72.70
2018-03-22T04:58:20.939Z,72.90
2018-03-22T05:00:48.497Z,72.50
2018-03-22T05:03:16.043Z,72.50
2018-03-22T05:05:43.656Z,72.40
2018-03-22T05:08:11.228Z,72.30
2018-03-22T05:10:38.802Z,72.10
2018-03-22T05:13:07.126Z,72.00
2018-03-22T05:15:34.719Z,72.00
2018-03-22T05:18:02.282Z,71.80
2018-03-22T05:20:30.632Z,71.80
2018-03-22T05:22:58.172Z,71.80
2018-03-22T05:25:25.739Z,71.20
2018-03-22T05:27:53.287Z,71.10
2018-03-22T05:30:20.849Z,71.00
2018-03-22T05:32:48.398Z,71.00
2018-03-22T05:35:15.972Z,70.90
2018-03-22T05:37:43.530Z,71.10
2018-03-22T05:40:11.092Z,70.90
2018-03-22T05:42:38.683Z,71.00
2018-03-22T05:45:06.237Z,70.90
2018-03-22T05:47:33.819Z,71.20
2018-03-22T05:50:01.368Z,71.40
2018-03-22T05:52:28.956Z,71.40
2018-03-22T05:54:56.500Z,71.00
2018-03-22T05:57:24.072Z,71.00
2018-03-22T05:59:51.609Z,70.60
2018-03-22T06:02:19.173Z,70.50
2018-03-22T06:04:46.714Z,70.50
2018-03-22T06:07:14.337Z,70.40
2018-03-22T06:09:56.202Z,71.70
2018-03-22T06:12:23.779Z,71.60
2018-03-22T06:14:52.119Z,75.80
2018-03-22T06:17:19.651Z,75.00
2018-03-22T06:19:47.243Z,76.70
2018-03-22T06:22:14.823Z,77.50
2018-03-22T06:24:42.391Z,77.30
2018-03-22T06:27:09.921Z,77.20
2018-03-22T06:29:37.479Z,76.70
2018-03-22T06:32:05.039Z,76.10
2018-03-22T06:34:32.613Z,75.80
2018-03-22T06:37:00.174Z,75.40
2018-03-22T06:39:27.743Z,75.70
2018-03-22T06:41:55.289Z,75.50
2018-03-22T06:44:22.860Z,75.00
2018-03-22T06:46:50.405Z,74.90
2018-03-22T06:49:17.942Z,75.10
2018-03-22T06:51:45.519Z,73.70
2018-03-22T06:54:13.064Z,73.60
2018-03-22T06:56:40.641Z,73.20
2018-03-22T06:59:08.198Z,72.30
2018-03-22T07:01:35.791Z,71.80
2018-03-22T07:04:03.345Z,72.00
2018-03-22T07:06:30.916Z,72.70
2018-03-22T07:08:58.465Z,73.60
2018-03-22T07:11:26.039Z,76.10
2018-03-22T07:13:53.607Z,77.40
2018-03-22T07:16:21.165Z,78.90
2018-03-22T07:18:48.709Z,80.20
2018-03-22T07:21:16.296Z,81.20
2018-03-22T07:23:44.594Z,83.60
2018-03-22T07:26:12.163Z,83.40
2018-03-22T07:28:39.727Z,82.60
2018-03-22T07:31:07.267Z,82.00
2018-03-22T07:33:34.826Z,83.10
2018-03-22T07:36:02.372Z,84.00
2018-03-22T07:38:30.702Z,85.00
2018-03-22T07:40:58.247Z,85.00
2018-03-22T07:43:31.462Z,86.20
2018-03-22T07:45:58.990Z,86.60
2018-03-22T07:48:26.548Z,86.60
2018-03-22T07:50:54.090Z,86.50
2018-03-22T07:53:21.682Z,86.60
2018-03-22T07:55:49.232Z,86.80
2018-03-22T07:58:16.811Z,86.40
2018-03-22T08:00:44.390Z,86.60
2018-03-22T08:03:15.949Z,86.60
2018-03-22T08:05:43.509Z,86.40
2018-03-22T08:08:11.147Z,86.20
2018-03-22T08:10:38.714Z,86.20
2018-03-22T08:13:07.018Z,85.50
2018-03-22T08:15:34.598Z,85.40
2018-03-22T08:18:02.900Z,86.00
2018-03-22T08:20:30.470Z,85.90
2018-03-22T08:22:58.023Z,85.90
2018-03-22T08:25:25.595Z,86.00
2018-03-22T08:27:53.145Z,86.40
2018-03-22T08:30:20.718Z,86.10
2018-03-22T08:32:48.251Z,87.00
2018-03-22T08:35:16.005Z,93.50
2018-03-22T08:37:43.562Z,93.30
2018-03-22T08:40:11.862Z,93.10
2018-03-22T08:42:39.416Z,93.10
2018-03-22T08:45:06.948Z,92.30
2018-03-22T08:47:34.518Z,92.00
2018-03-22T08:50:02.913Z,90.90
2018-03-22T08:52:30.472Z,90.80
2018-03-22T08:54:58.015Z,89.20
2018-03-22T08:57:26.342Z,87.60
2018-03-22T08:59:53.881Z,87.60
2018-03-22T09:02:21.468Z,87.90
2018-03-22T09:04:48.999Z,87.60
2018-03-22T09:07:16.568Z,86.80
2018-03-22T09:09:44.151Z,87.60
2018-03-22T09:12:11.672Z,87.60
2018-03-22T09:14:39.233Z,87.30
2018-03-22T09:17:06.775Z,87.00
2018-03-22T09:19:35.098Z,87.50
2018-03-22T09:22:02.758Z,87.50
2018-03-22T09:24:30.318Z,87.90
2018-03-22T09:27:03.586Z,88.10
2018-03-22T09:29:31.956Z,88.00
2018-03-22T09:32:00.269Z,88.80
2018-03-22T09:34:27.828Z,88.80
2018-03-22T09:36:55.370Z,89.30
2018-03-22T09:39:22.956Z,89.30
2018-03-22T09:41:50.489Z,90.00
2018-03-22T09:44:18.053Z,90.00
2018-03-22T09:46:45.619Z,89.90
2018-03-22T09:49:13.190Z,90.20
2018-03-22T09:51:40.753Z,90.10
2018-03-22T09:54:08.299Z,90.30
2018-03-22T09:56:35.862Z,90.20
2018-03-22T09:59:03.420Z,90.10
2018-03-22T10:01:30.991Z,90.40
2018-03-22T10:03:58.550Z,90.50
2018-03-22T10:06:26.110Z,90.10
2018-03-22T10:08:53.646Z,89.90
2018-03-22T10:11:21.245Z,90.60
2018-03-22T10:13:48.830Z,90.20
2018-03-22T10:16:16.400Z,90.10
2018-03-22T10:18:43.943Z,90.50
2018-03-22T10:21:11.546Z,90.40
2018-03-22T10:23:39.857Z,90.40
2018-03-22T10:26:07.389Z,90.40
2018-03-22T10:28:34.968Z,90.50
2018-03-22T10:31:02.506Z,90.10
2018-03-22T10:33:30.824Z,90.30
2018-03-22T10:35:58.434Z,90.30
2018-03-22T10:38:25.967Z,90.40
2018-03-22T10:40:53.592Z,90.50
2018-03-22T10:43:21.160Z,90.50
2018-03-22T10:45:48.709Z,90.30
2018-03-22T10:48:16.306Z,90.40
2018-03-22T10:50:43.845Z,90.40
2018-03-22T10:53:11.388Z,90.50
2018-03-22T10:55:38.962Z,90.80
2018-03-22T10:58:06.513Z,90.80
2018-03-22T11:00:37.852Z,90.50
2018-03-22T11:03:11.164Z,90.60
2018-03-22T11:05:38.720Z,90.70
2018-03-22T11:08:07.079Z,90.70
2018-03-22T11:10:34.639Z,90.50
2018-03-22T11:13:02.190Z,90.60
2018-03-22T11:15:30.518Z,90.60
2018-03-22T11:17:58.075Z,90.60
2018-03-22T11:20:25.644Z,90.60
2018-03-22T11:22:53.185Z,90.70
2018-03-22T11:25:20.719Z,90.50
2018-03-22T11:27:48.294Z,90.60
2018-03-22T11:30:15.846Z,90.80
2018-03-22T11:32:43.459Z,90.80
2018-03-22T11:35:10.994Z,90.90
2018-03-22T11:37:38.573Z,91.00
2018-03-22T11:40:06.105Z,91.00
2018-03-22T11:42:33.712Z,91.00
2018-03-22T11:45:02.022Z,91.10
2018-03-22T11:47:29.572Z,91.10
2018-03-22T11:49:57.124Z,91.00
2018-03-22T11:52:25.443Z,91.00
2018-03-22T11:54:52.995Z,91.00
2018-03-22T11:57:20.552Z,91.00
2018-03-22T11:59:48.076Z,90.90
2018-03-22T12:02:16.429Z,91.10
2018-03-22T12:04:44.000Z,91.00
2018-03-22T12:07:11.537Z,91.10
2018-03-22T12:09:39.114Z,91.00
2018-03-22T12:12:06.666Z,91.00
2018-03-22T12:14:35.016Z,90.80
2018-03-22T12:17:02.553Z,90.80
2018-03-22T12:19:30.102Z,90.70
2018-03-22T12:21:58.403Z,90.80
2018-03-22T12:24:25.969Z,90.80
2018-03-22T12:26:54.299Z,90.80
2018-03-22T12:29:21.849Z,90.80
2018-03-22T12:31:49.375Z,90.90
2018-03-22T12:34:16.943Z,90.90
2018-03-22T12:36:44.485Z,90.90
2018-03-22T12:39:12.039Z,90.80
2018-03-22T12:41:39.578Z,90.70
2018-03-22T12:44:07.154Z,90.70
2018-03-22T12:46:34.695Z,90.60
2018-03-22T12:49:03.046Z,90.60
2018-03-22T12:51:30.589Z,90.50
2018-03-22T12:53:58.127Z,90.50
2018-03-22T12:56:25.674Z,90.80
2018-03-22T12:58:53.209Z,90.70
2018-03-22T13:01:21.552Z,90.70
2018-03-22T13:03:49.087Z,90.70
2018-03-22T13:06:16.741Z,90.60
2018-03-22T13:08:44.409Z,90.50
2018-03-22T13:11:11.967Z,90.70
2018-03-22T13:13:39.510Z,90.80
2018-03-22T13:16:07.070Z,90.70
2018-03-22T13:18:34.626Z,91.10
2018-03-22T13:21:02.212Z,90.80
2018-03-22T13:23:29.747Z,90.70
2018-03-22T13:25:57.433Z,90.70
2018-03-22T13:28:24.995Z,91.10
2018-03-22T13:30:52.577Z,90.80
2018-03-22T13:33:20.119Z,91.00
2018-03-22T13:35:47.673Z,90.80
2018-03-22T13:38:15.233Z,91.00
2018-03-22T13:40:42.778Z,90.80
2018-03-22T13:43:10.351Z,91.00
2018-03-22T13:45:37.962Z,91.20
2018-03-22T13:48:06.321Z,91.00
2018-03-22T13:50:33.866Z,90.90
2018-03-22T13:53:01.477Z,91.20
2018-03-22T13:55:29.802Z,91.10
2018-03-22T13:57:57.399Z,91.10
2018-03-22T14:00:25.834Z,90.90
2018-03-22T14:02:53.486Z,90.90
2018-03-22T14:05:21.069Z,91.10
2018-03-22T14:07:48.652Z,91.10
2018-03-22T14:10:16.245Z,91.20
2018-03-22T14:12:44.601Z,91.40
2018-03-22T14:15:12.953Z,91.30
2018-03-22T14:17:40.495Z,91.20
2018-03-22T14:20:08.047Z,91.30
2018-03-22T14:22:35.614Z,91.50
2018-03-22T14:25:03.169Z,91.40
2018-03-22T14:27:30.707Z,91.50
2018-03-22T14:29:59.036Z,91.30
2018-03-22T14:32:26.595Z,91.30
2018-03-22T14:34:54.194Z,91.50
2018-03-22T14:37:22.506Z,91.40
2018-03-22T14:39:50.058Z,91.40
2018-03-22T14:42:17.620Z,91.40
2018-03-22T14:44:45.155Z,91.30
2018-03-22T14:47:13.496Z,91.40
2018-03-22T14:49:41.039Z,91.30
2018-03-22T14:52:09.507Z,91.60
2018-03-22T14:54:37.050Z,91.60
2018-03-22T14:57:04.610Z,91.50
2018-03-22T14:59:32.155Z,91.50
2018-03-22T15:02:00.567Z,91.60
2018-03-22T15:04:28.095Z,91.60
2018-03-22T15:06:56.422Z,91.60
2018-03-22T15:09:23.973Z,91.60
2018-03-22T15:11:51.555Z,91.60
2018-03-22T15:14:19.095Z,91.90
2018-03-22T15:16:46.653Z,91.90
2018-03-22T15:19:14.481Z,91.80
2018-03-22T15:21:42.117Z,91.80
2018-03-22T15:24:10.461Z,91.90
2018-03-22T15:26:38.164Z,91.90
2018-03-22T15:29:05.726Z,92.00
2018-03-22T15:31:33.268Z,91.90
2018-03-22T15:34:00.826Z,91.90
2018-03-22T15:36:28.461Z,91.90
2018-03-22T15:38:56.041Z,91.90
2018-03-22T15:41:23.620Z,91.80
2018-03-22T15:43:51.174Z,92.10
2018-03-22T15:46:18.722Z,92.00
2018-03-22T15:48:46.299Z,91.80
2018-03-22T15:51:13.837Z,92.00
2018-03-22T15:53:41.410Z,91.90
2018-03-22T15:56:08.955Z,92.10
2018-03-22T15:58:36.853Z,92.50
2018-03-22T16:01:04.429Z,92.10
2018-03-22T16:03:31.982Z,92.10
2018-03-22T16:05:59.624Z,91.90
2018-03-22T16:08:27.173Z,92.00
2018-03-22T16:10:55.713Z,92.00
2018-03-22T16:13:23.258Z,92.20
2018-03-22T16:15:51.607Z,92.10
2018-03-22T16:18:19.153Z,92.10
2018-03-22T16:20:46.772Z,92.20
2018-03-22T16:23:14.366Z,92.30
2018-03-22T16:25:41.962Z,92.40
2018-03-22T16:28:10.283Z,92.60
2018-03-22T16:30:37.955Z,92.40
2018-03-22T16:33:05.491Z,92.50
2018-03-22T16:35:33.031Z,92.60
2018-03-22T16:38:01.460Z,92.80
2018-03-22T16:40:29.018Z,92.80
2018-03-22T16:42:56.570Z,92.90
2018-03-22T16:45:24.841Z,93.00
2018-03-22T16:47:52.412Z,93.20
2018-03-22T16:50:19.959Z,93.10
2018-03-22T16:52:48.431Z,93.20
2018-03-22T16:55:16.016Z,93.40
2018-03-22T16:57:43.630Z,93.40
2018-03-22T17:00:11.938Z,93.50
2018-03-22T17:02:39.466Z,93.40
2018-03-22T17:05:07.040Z,93.40
2018-03-22T17:07:35.345Z,93.40
2018-03-22T17:10:02.900Z,93.30
2018-03-22T17:12:30.462Z,93.40
2018-03-22T17:14:58.037Z,93.40
2018-03-22T17:17:25.574Z,93.40
2018-03-22T17:19:53.162Z,93.40
2018-03-22T17:22:20.750Z,93.40
2018-03-22T17:24:48.310Z,93.30
2018-03-22T17:27:15.881Z,93.50
2018-03-22T17:29:43.450Z,93.50
2018-03-22T17:32:11.792Z,93.40
2018-03-22T17:34:39.438Z,93.30
2018-03-22T17:37:06.994Z,93.40
2018-03-22T17:39:34.538Z,93.40
2018-03-22T17:42:02.121Z,93.30
2018-03-22T17:44:29.676Z,93.40
2018-03-22T17:46:58.014Z,93.30
2018-03-22T17:49:26.346Z,93.10
2018-03-22T17:51:53.954Z,93.10
2018-03-22T17:54:21.481Z,93.10
2018-03-22T17:56:49.047Z,93.10
2018-03-22T17:59:16.588Z,93.10
2018-03-22T18:01:44.161Z,93.60
2018-03-22T18:04:11.697Z,93.30
2018-03-22T18:06:39.263Z,93.30
2018-03-22T18:09:06.804Z,93.30
2018-03-22T18:11:34.481Z,93.30
2018-03-22T18:14:02.045Z,93.30
2018-03-22T18:16:29.623Z,93.30
2018-03-22T18:18:57.218Z,93.30
2018-03-22T18:24:00.306Z,93.30
2018-03-22T18:26:27.880Z,93.30
2018-03-22T18:28:55.459Z,93.40
2018-03-22T18:31:23.782Z,93.30
2018-03-22T18:33:51.353Z,93.30
2018-03-22T18:36:18.893Z,93.20
2018-03-22T18:38:46.441Z,93.30
2018-03-22T18:41:14.037Z,93.30
2018-03-22T18:43:41.619Z,93.20
2018-03-22T18:46:09.962Z,93.40
2018-03-22T18:48:40.283Z,93.30
2018-03-22T18:51:07.859Z,93.40
2018-03-22T18:53:35.480Z,93.50
2018-03-22T18:56:03.107Z,93.40
2018-03-22T18:58:30.776Z,93.40
2018-03-22T19:00:58.339Z,93.90
2018-03-22T19:03:26.651Z,93.40
2018-03-22T19:05:54.246Z,93.40
2018-03-22T19:08:21.806Z,93.50
2018-03-22T19:10:49.447Z,93.60
2018-03-22T19:13:17.042Z,93.60
2018-03-22T19:15:44.586Z,93.60
2018-03-22T19:18:12.246Z,93.60
2018-03-22T19:20:39.813Z,93.60
2018-03-22T19:23:08.351Z,93.60
2018-03-22T19:25:35.972Z,93.60
2018-03-22T19:28:03.534Z,93.50
2018-03-22T19:30:31.083Z,93.70
2018-03-22T19:32:58.779Z,93.60
2018-03-22T19:35:27.133Z,93.60
2018-03-22T19:37:55.044Z,93.60
2018-03-22T19:40:22.590Z,93.60
2018-03-22T19:42:50.241Z,93.60
2018-03-22T19:45:17.984Z,93.50
2018-03-22T19:47:45.548Z,93.90
2018-03-22T19:50:13.121Z,93.60
2018-03-22T19:52:41.463Z,93.90
2018-03-22T19:55:09.047Z,93.60
2018-03-22T19:57:36.646Z,93.60
2018-03-22T20:00:04.230Z,93.60
2018-03-22T20:02:32.438Z,93.50
2018-03-22T20:05:00.295Z,93.90
2018-03-22T20:07:28.624Z,94.00
2018-03-22T20:09:57.017Z,93.80
2018-03-22T20:12:25.435Z,93.80
2018-03-22T20:14:53.016Z,93.90
2018-03-22T20:17:20.562Z,93.90
2018-03-22T20:19:48.224Z,93.90
2018-03-22T20:22:15.785Z,94.00
2018-03-22T20:24:44.087Z,94.00
2018-03-22T20:27:11.785Z,93.90
2018-03-22T20:29:39.325Z,94.00
2018-03-22T20:32:07.700Z,94.10
2018-03-22T20:34:35.391Z,94.10
2018-03-22T20:37:02.938Z,94.10
2018-03-22T20:39:30.607Z,94.10
2018-03-22T20:41:58.169Z,94.10
2018-03-22T20:44:25.736Z,94.00
2018-03-22T20:46:53.398Z,94.10
2018-03-22T20:49:20.939Z,94.00
2018-03-22T20:51:50.035Z,94.00
2018-03-22T20:54:19.738Z,93.90
2018-03-22T20:56:47.340Z,93.80
2018-03-22T20:59:14.883Z,93.80
2018-03-22T21:01:42.550Z,93.70
2018-03-22T21:04:10.107Z,93.70
2018-03-22T21:06:37.724Z,93.70
2018-03-22T21:09:05.420Z,93.70
2018-03-22T21:11:32.987Z,93.70
2018-03-22T21:14:00.606Z,93.70
2018-03-22T21:16:28.189Z,93.80
2018-03-22T21:18:56.579Z,93.80
2018-03-22T21:21:24.898Z,93.70
2018-03-22T21:23:52.446Z,93.70
2018-03-22T21:26:20.077Z,93.70
2018-03-22T21:28:48.489Z,93.70
2018-03-22T21:31:16.017Z,93.60
2018-03-22T21:33:44.387Z,93.50
2018-03-22T21:36:12.034Z,93.50
2018-03-22T21:38:39.608Z,93.60
2018-03-22T21:41:07.906Z,93.70
2018-03-22T21:43:35.601Z,93.60
2018-03-22T21:46:03.176Z,93.70
2018-03-22T21:48:31.178Z,93.80
2018-03-22T21:51:01.215Z,93.80
2018-03-22T21:53:28.782Z,93.80
2018-03-22T21:55:56.389Z,93.80
2018-03-22T21:58:24.126Z,93.70
2018-03-22T22:00:51.708Z,93.60
2018-03-22T22:03:20.135Z,93.70
2018-03-22T22:05:48.528Z,93.70
2018-03-22T22:08:16.075Z,93.70
2018-03-22T22:10:44.378Z,93.70
2018-03-22T22:13:11.949Z,93.60
2018-03-22T22:15:39.478Z,93.50
2018-03-22T22:18:07.068Z,93.60
2018-03-22T22:20:34.618Z,93.40
2018-03-22T22:23:02.190Z,93.50
2018-03-22T22:25:29.771Z,93.30
2018-03-22T22:27:57.355Z,93.30
2018-03-22T22:30:24.909Z,93.20
2018-03-22T22:32:52.451Z,93.20
2018-03-22T22:35:20.028Z,93.20
2018-03-22T22:37:47.619Z,93.30
2018-03-22T22:40:15.967Z,93.00
2018-03-22T22:42:43.507Z,93.00
2018-03-22T22:45:11.079Z,93.20
2018-03-22T22:47:38.610Z,93.20
2018-03-22T22:50:06.212Z,93.20
2018-03-22T22:52:33.759Z,93.20
2018-03-22T22:55:01.330Z,93.00
2018-03-22T22:57:28.886Z,93.00
2018-03-22T22:59:56.505Z,93.00
2018-03-22T23:02:24.051Z,93.00
2018-03-22T23:04:52.422Z,93.10
2018-03-22T23:07:19.984Z,93.10
2018-03-22T23:09:48.307Z,93.30
2018-03-22T23:12:15.888Z,93.30
2018-03-22T23:14:43.422Z,93.20
2018-03-22T23:17:10.982Z,93.00
2018-03-22T23:19:38.543Z,93.00
2018-03-22T23:22:06.097Z,93.00
2018-03-22T23:24:33.627Z,93.00
2018-03-22T23:27:01.219Z,93.00
2018-03-22T23:29:28.765Z,92.90
2018-03-22T23:31:56.338Z,92.90
2018-03-22T23:34:23.890Z,92.90
2018-03-22T23:36:51.464Z,92.80
2018-03-22T23:39:19.010Z,92.70
2018-03-22T23:41:46.565Z,92.50
2018-03-22T23:44:14.113Z,92.70
2018-03-22T23:46:42.518Z,92.70
2018-03-22T23:49:10.130Z,92.70
2018-03-22T23:51:37.692Z,92.70
2018-03-22T23:54:05.237Z,92.70
2018-03-22T23:56:32.790Z,92.70
2018-03-22T23:59:00.361Z,92.80
